sensor_id;sensor_type;location;lat;lon;timestamp;P1;durP1;ratioP1;P2;durP2;ratioP2
53253;SDS011;39148;53.332;6.922;2023-03-01T00:02:05;10.57;;;7.47;;
53253;SDS011;39148;53.332;6.922;2023-03-01T00:04:31;9.60;;;6.65;;
53253;SDS011;39148;53.332;6.922;2023-03-01T00:06:57;10.55;;;6.97;;
53253;SDS011;39148;53.332;6.922;2023-03-01T00:09:23;9.07;;;6.60;;
53253;SDS011;39148;53.332;6.922;2023-03-01T00:11:49;9.90;;;6.55;;
53253;SDS011;39148;53.332;6.922;2023-03-01T00:14:15;9.40;;;7.07;;
53253;SDS011;39148;53.332;6.922;2023-03-01T00:16:43;10.75;;;7.82;;
53253;SDS011;39148;53.332;6.922;2023-03-01T00:19:10;10.75;;;7.20;;
53253;SDS011;39148;53.332;6.922;2023-03-01T00:21:37;10.05;;;7.25;;
53253;SDS011;39148;53.332;6.922;2023-03-01T00:24:03;10.55;;;7.55;;
53253;SDS011;39148;53.332;6.922;2023-03-01T00:26:29;10.32;;;7.70;;
53253;SDS011;39148;53.332;6.922;2023-03-01T00:28:56;10.23;;;7.18;;
53253;SDS011;39148;53.332;6.922;2023-03-01T00:31:24;10.75;;;8.13;;
53253;SDS011;39148;53.332;6.922;2023-03-01T00:33:53;11.20;;;7.18;;
53253;SDS011;39148;53.332;6.922;2023-03-01T00:36:24;10.02;;;7.50;;
53253;SDS011;39148;53.332;6.922;2023-03-01T00:38:54;9.88;;;7.68;;
53253;SDS011;39148;53.332;6.922;2023-03-01T00:41:20;11.23;;;8.13;;
53253;SDS011;39148;53.332;6.922;2023-03-01T00:43:51;11.25;;;8.20;;
53253;SDS011;39148;53.332;6.922;2023-03-01T00:46:19;11.02;;;7.82;;
53253;SDS011;39148;53.332;6.922;2023-03-01T00:48:45;11.68;;;7.72;;
53253;SDS011;39148;53.332;6.922;2023-03-01T00:51:23;10.30;;;7.88;;
53253;SDS011;39148;53.332;6.922;2023-03-01T00:53:53;12.20;;;7.68;;
53253;SDS011;39148;53.332;6.922;2023-03-01T00:56:19;10.65;;;8.10;;
53253;SDS011;39148;53.332;6.922;2023-03-01T00:58:45;11.35;;;8.10;;
53253;SDS011;39148;53.332;6.922;2023-03-01T01:01:12;10.55;;;7.55;;
53253;SDS011;39148;53.332;6.922;2023-03-01T01:03:44;9.75;;;7.43;;
53253;SDS011;39148;53.332;6.922;2023-03-01T01:06:21;9.68;;;7.63;;
53253;SDS011;39148;53.332;6.922;2023-03-01T01:08:47;10.60;;;7.97;;
53253;SDS011;39148;53.332;6.922;2023-03-01T01:11:14;11.82;;;8.50;;
53253;SDS011;39148;53.332;6.922;2023-03-01T01:13:40;11.73;;;8.55;;
53253;SDS011;39148;53.332;6.922;2023-03-01T01:16:07;9.73;;;7.50;;
53253;SDS011;39148;53.332;6.922;2023-03-01T01:18:33;10.52;;;7.38;;
53253;SDS011;39148;53.332;6.922;2023-03-01T01:21:02;11.93;;;7.90;;
53253;SDS011;39148;53.332;6.922;2023-03-01T01:23:29;10.05;;;7.40;;
53253;SDS011;39148;53.332;6.922;2023-03-01T01:25:55;12.82;;;8.07;;
53253;SDS011;39148;53.332;6.922;2023-03-01T01:28:20;12.10;;;8.88;;
53253;SDS011;39148;53.332;6.922;2023-03-01T01:30:46;11.68;;;8.30;;
53253;SDS011;39148;53.332;6.922;2023-03-01T01:33:12;12.68;;;8.15;;
53253;SDS011;39148;53.332;6.922;2023-03-01T01:35:38;10.75;;;8.38;;
53253;SDS011;39148;53.332;6.922;2023-03-01T01:38:04;12.82;;;8.82;;
53253;SDS011;39148;53.332;6.922;2023-03-01T01:40:30;11.95;;;8.35;;
53253;SDS011;39148;53.332;6.922;2023-03-01T01:42:56;12.40;;;8.48;;
53253;SDS011;39148;53.332;6.922;2023-03-01T01:47:51;10.48;;;8.35;;
53253;SDS011;39148;53.332;6.922;2023-03-01T01:50:17;12.95;;;8.13;;
53253;SDS011;39148;53.332;6.922;2023-03-01T01:52:44;11.57;;;8.55;;
53253;SDS011;39148;53.332;6.922;2023-03-01T01:55:12;13.43;;;8.85;;
53253;SDS011;39148;53.332;6.922;2023-03-01T01:57:41;12.35;;;8.82;;
53253;SDS011;39148;53.332;6.922;2023-03-01T02:00:14;11.70;;;8.88;;
53253;SDS011;39148;53.332;6.922;2023-03-01T02:02:43;12.88;;;9.25;;
53253;SDS011;39148;53.332;6.922;2023-03-01T02:07:52;11.73;;;8.82;;
53253;SDS011;39148;53.332;6.922;2023-03-01T02:10:18;12.95;;;9.13;;
53253;SDS011;39148;53.332;6.922;2023-03-01T02:12:45;11.68;;;8.70;;
53253;SDS011;39148;53.332;6.922;2023-03-01T02:15:11;11.95;;;8.63;;
53253;SDS011;39148;53.332;6.922;2023-03-01T02:17:37;11.35;;;8.75;;
53253;SDS011;39148;53.332;6.922;2023-03-01T02:22:45;11.48;;;8.27;;
53253;SDS011;39148;53.332;6.922;2023-03-01T02:30:19;12.05;;;8.95;;
53253;SDS011;39148;53.332;6.922;2023-03-01T02:32:46;12.05;;;8.75;;
53253;SDS011;39148;53.332;6.922;2023-03-01T02:35:13;12.20;;;9.20;;
53253;SDS011;39148;53.332;6.922;2023-03-01T02:37:41;12.65;;;9.50;;
53253;SDS011;39148;53.332;6.922;2023-03-01T02:40:08;10.77;;;8.43;;
53253;SDS011;39148;53.332;6.922;2023-03-01T02:42:38;12.60;;;9.07;;
53253;SDS011;39148;53.332;6.922;2023-03-01T02:45:06;13.10;;;9.57;;
53253;SDS011;39148;53.332;6.922;2023-03-01T02:47:32;12.48;;;9.25;;
53253;SDS011;39148;53.332;6.922;2023-03-01T02:49:58;12.88;;;9.48;;
53253;SDS011;39148;53.332;6.922;2023-03-01T02:57:27;13.13;;;9.23;;
53253;SDS011;39148;53.332;6.922;2023-03-01T02:59:57;12.82;;;9.70;;
53253;SDS011;39148;53.332;6.922;2023-03-01T03:02:32;12.93;;;9.60;;
53253;SDS011;39148;53.332;6.922;2023-03-01T03:05:11;13.07;;;9.48;;
53253;SDS011;39148;53.332;6.922;2023-03-01T03:07:39;13.52;;;9.90;;
53253;SDS011;39148;53.332;6.922;2023-03-01T03:10:07;12.68;;;9.52;;
53253;SDS011;39148;53.332;6.922;2023-03-01T03:15:04;13.73;;;10.43;;
53253;SDS011;39148;53.332;6.922;2023-03-01T03:17:36;12.85;;;9.38;;
53253;SDS011;39148;53.332;6.922;2023-03-01T03:20:03;14.65;;;10.35;;
53253;SDS011;39148;53.332;6.922;2023-03-01T03:22:30;13.85;;;9.80;;
53253;SDS011;39148;53.332;6.922;2023-03-01T03:24:56;13.40;;;9.98;;
53253;SDS011;39148;53.332;6.922;2023-03-01T03:27:22;13.65;;;9.90;;
53253;SDS011;39148;53.332;6.922;2023-03-01T03:29:48;14.38;;;9.63;;
53253;SDS011;39148;53.332;6.922;2023-03-01T03:32:14;12.82;;;9.25;;
53253;SDS011;39148;53.332;6.922;2023-03-01T03:34:40;13.38;;;9.80;;
53253;SDS011;39148;53.332;6.922;2023-03-01T03:37:06;14.57;;;10.00;;
53253;SDS011;39148;53.332;6.922;2023-03-01T03:39:52;14.07;;;9.05;;
53253;SDS011;39148;53.332;6.922;2023-03-01T03:42:20;14.70;;;9.75;;
53253;SDS011;39148;53.332;6.922;2023-03-01T03:44:47;13.13;;;9.27;;
53253;SDS011;39148;53.332;6.922;2023-03-01T03:47:13;11.60;;;9.15;;
53253;SDS011;39148;53.332;6.922;2023-03-01T03:49:39;13.30;;;9.82;;
53253;SDS011;39148;53.332;6.922;2023-03-01T03:52:05;13.57;;;9.52;;
53253;SDS011;39148;53.332;6.922;2023-03-01T03:54:39;14.10;;;9.30;;
53253;SDS011;39148;53.332;6.922;2023-03-01T03:57:05;13.30;;;9.55;;
53253;SDS011;39148;53.332;6.922;2023-03-01T03:59:31;13.95;;;9.18;;
53253;SDS011;39148;53.332;6.922;2023-03-01T04:01:57;11.38;;;8.98;;
53253;SDS011;39148;53.332;6.922;2023-03-01T04:04:23;13.85;;;9.50;;
53253;SDS011;39148;53.332;6.922;2023-03-01T04:06:49;11.63;;;9.00;;
53253;SDS011;39148;53.332;6.922;2023-03-01T04:09:15;14.95;;;9.73;;
53253;SDS011;39148;53.332;6.922;2023-03-01T04:11:41;12.75;;;9.00;;
53253;SDS011;39148;53.332;6.922;2023-03-01T04:14:07;13.05;;;9.50;;
53253;SDS011;39148;53.332;6.922;2023-03-01T04:16:33;12.18;;;9.35;;
53253;SDS011;39148;53.332;6.922;2023-03-01T04:18:59;13.25;;;9.23;;
53253;SDS011;39148;53.332;6.922;2023-03-01T04:21:25;12.80;;;9.65;;
53253;SDS011;39148;53.332;6.922;2023-03-01T04:23:51;13.15;;;9.60;;
53253;SDS011;39148;53.332;6.922;2023-03-01T04:26:18;12.88;;;9.23;;
53253;SDS011;39148;53.332;6.922;2023-03-01T04:28:45;12.07;;;9.57;;
53253;SDS011;39148;53.332;6.922;2023-03-01T04:31:14;13.73;;;9.55;;
53253;SDS011;39148;53.332;6.922;2023-03-01T04:33:47;11.98;;;9.07;;
53253;SDS011;39148;53.332;6.922;2023-03-01T04:36:14;13.40;;;9.70;;
53253;SDS011;39148;53.332;6.922;2023-03-01T04:38:41;13.45;;;9.50;;
53253;SDS011;39148;53.332;6.922;2023-03-01T04:41:08;12.80;;;9.48;;
53253;SDS011;39148;53.332;6.922;2023-03-01T04:43:35;12.18;;;9.07;;
53253;SDS011;39148;53.332;6.922;2023-03-01T04:46:01;13.75;;;9.80;;
53253;SDS011;39148;53.332;6.922;2023-03-01T04:48:28;13.18;;;9.20;;
53253;SDS011;39148;53.332;6.922;2023-03-01T04:50:54;13.73;;;9.48;;
53253;SDS011;39148;53.332;6.922;2023-03-01T04:53:20;12.98;;;9.30;;
53253;SDS011;39148;53.332;6.922;2023-03-01T04:55:46;14.25;;;9.75;;
53253;SDS011;39148;53.332;6.922;2023-03-01T04:58:12;13.27;;;9.55;;
53253;SDS011;39148;53.332;6.922;2023-03-01T05:00:38;12.73;;;9.15;;
53253;SDS011;39148;53.332;6.922;2023-03-01T05:03:04;12.23;;;9.07;;
53253;SDS011;39148;53.332;6.922;2023-03-01T05:05:33;13.23;;;9.43;;
53253;SDS011;39148;53.332;6.922;2023-03-01T05:08:02;13.48;;;9.73;;
53253;SDS011;39148;53.332;6.922;2023-03-01T05:10:30;13.63;;;10.13;;
53253;SDS011;39148;53.332;6.922;2023-03-01T05:12:57;14.02;;;9.55;;
53253;SDS011;39148;53.332;6.922;2023-03-01T05:15:24;15.65;;;10.88;;
53253;SDS011;39148;53.332;6.922;2023-03-01T05:17:53;12.60;;;9.57;;
53253;SDS011;39148;53.332;6.922;2023-03-01T05:20:20;14.20;;;10.07;;
53253;SDS011;39148;53.332;6.922;2023-03-01T05:22:48;12.68;;;9.30;;
53253;SDS011;39148;53.332;6.922;2023-03-01T05:25:14;13.30;;;9.75;;
53253;SDS011;39148;53.332;6.922;2023-03-01T05:27:40;13.52;;;9.52;;
53253;SDS011;39148;53.332;6.922;2023-03-01T05:30:06;11.95;;;9.00;;
53253;SDS011;39148;53.332;6.922;2023-03-01T05:32:43;12.85;;;9.73;;
53253;SDS011;39148;53.332;6.922;2023-03-01T05:35:10;12.05;;;8.85;;
53253;SDS011;39148;53.332;6.922;2023-03-01T05:37:42;13.23;;;8.80;;
53253;SDS011;39148;53.332;6.922;2023-03-01T05:40:09;11.38;;;8.63;;
53253;SDS011;39148;53.332;6.922;2023-03-01T05:42:41;12.65;;;9.40;;
53253;SDS011;39148;53.332;6.922;2023-03-01T05:45:10;12.48;;;9.45;;
53253;SDS011;39148;53.332;6.922;2023-03-01T05:47:37;12.95;;;9.18;;
53253;SDS011;39148;53.332;6.922;2023-03-01T05:50:09;11.38;;;8.40;;
53253;SDS011;39148;53.332;6.922;2023-03-01T05:52:35;13.43;;;9.32;;
53253;SDS011;39148;53.332;6.922;2023-03-01T05:55:01;13.18;;;8.68;;
53253;SDS011;39148;53.332;6.922;2023-03-01T05:57:28;11.88;;;8.45;;
53253;SDS011;39148;53.332;6.922;2023-03-01T05:59:54;13.38;;;9.25;;
53253;SDS011;39148;53.332;6.922;2023-03-01T06:02:20;14.27;;;9.40;;
53253;SDS011;39148;53.332;6.922;2023-03-01T06:04:46;12.90;;;9.15;;
53253;SDS011;39148;53.332;6.922;2023-03-01T06:07:12;13.40;;;9.73;;
53253;SDS011;39148;53.332;6.922;2023-03-01T06:09:38;12.43;;;8.38;;
53253;SDS011;39148;53.332;6.922;2023-03-01T06:12:04;14.05;;;9.13;;
53253;SDS011;39148;53.332;6.922;2023-03-01T06:14:30;12.20;;;8.82;;
53253;SDS011;39148;53.332;6.922;2023-03-01T06:16:57;12.52;;;8.90;;
53253;SDS011;39148;53.332;6.922;2023-03-01T06:19:23;11.80;;;8.35;;
53253;SDS011;39148;53.332;6.922;2023-03-01T06:21:49;12.07;;;8.40;;
53253;SDS011;39148;53.332;6.922;2023-03-01T06:24:15;13.35;;;10.07;;
53253;SDS011;39148;53.332;6.922;2023-03-01T06:26:41;13.18;;;8.55;;
53253;SDS011;39148;53.332;6.922;2023-03-01T06:29:07;12.10;;;8.35;;
53253;SDS011;39148;53.332;6.922;2023-03-01T06:31:33;13.98;;;9.63;;
53253;SDS011;39148;53.332;6.922;2023-03-01T06:33:59;12.40;;;8.85;;
53253;SDS011;39148;53.332;6.922;2023-03-01T06:36:25;13.60;;;8.77;;
53253;SDS011;39148;53.332;6.922;2023-03-01T06:38:51;12.48;;;9.07;;
53253;SDS011;39148;53.332;6.922;2023-03-01T06:41:17;12.85;;;8.77;;
53253;SDS011;39148;53.332;6.922;2023-03-01T06:43:43;12.38;;;8.70;;
53253;SDS011;39148;53.332;6.922;2023-03-01T06:46:09;12.60;;;8.68;;
53253;SDS011;39148;53.332;6.922;2023-03-01T06:48:35;12.88;;;8.40;;
53253;SDS011;39148;53.332;6.922;2023-03-01T06:51:01;13.65;;;8.88;;
53253;SDS011;39148;53.332;6.922;2023-03-01T06:53:28;14.45;;;9.57;;
53253;SDS011;39148;53.332;6.922;2023-03-01T06:55:57;12.77;;;9.05;;
53253;SDS011;39148;53.332;6.922;2023-03-01T06:58:25;13.40;;;9.65;;
53253;SDS011;39148;53.332;6.922;2023-03-01T07:00:51;12.50;;;8.95;;
53253;SDS011;39148;53.332;6.922;2023-03-01T07:03:17;13.73;;;9.27;;
53253;SDS011;39148;53.332;6.922;2023-03-01T07:05:43;13.10;;;9.13;;
53253;SDS011;39148;53.332;6.922;2023-03-01T07:08:10;11.63;;;8.63;;
53253;SDS011;39148;53.332;6.922;2023-03-01T07:10:36;12.93;;;8.93;;
53253;SDS011;39148;53.332;6.922;2023-03-01T07:13:02;13.30;;;9.02;;
53253;SDS011;39148;53.332;6.922;2023-03-01T07:15:28;13.18;;;9.20;;
53253;SDS011;39148;53.332;6.922;2023-03-01T07:17:55;14.68;;;9.15;;
53253;SDS011;39148;53.332;6.922;2023-03-01T07:20:21;15.05;;;9.63;;
53253;SDS011;39148;53.332;6.922;2023-03-01T07:22:50;12.90;;;9.40;;
53253;SDS011;39148;53.332;6.922;2023-03-01T07:25:16;12.80;;;9.23;;
53253;SDS011;39148;53.332;6.922;2023-03-01T07:27:42;13.30;;;9.13;;
53253;SDS011;39148;53.332;6.922;2023-03-01T07:30:09;14.15;;;9.52;;
53253;SDS011;39148;53.332;6.922;2023-03-01T07:32:35;13.05;;;9.20;;
53253;SDS011;39148;53.332;6.922;2023-03-01T07:35:01;15.48;;;10.10;;
53253;SDS011;39148;53.332;6.922;2023-03-01T07:37:27;13.23;;;9.05;;
53253;SDS011;39148;53.332;6.922;2023-03-01T07:39:53;13.00;;;9.32;;
53253;SDS011;39148;53.332;6.922;2023-03-01T07:42:19;13.63;;;9.35;;
53253;SDS011;39148;53.332;6.922;2023-03-01T07:44:45;13.90;;;9.73;;
53253;SDS011;39148;53.332;6.922;2023-03-01T07:47:11;13.93;;;9.85;;
53253;SDS011;39148;53.332;6.922;2023-03-01T07:49:37;14.60;;;9.50;;
53253;SDS011;39148;53.332;6.922;2023-03-01T07:52:03;15.07;;;10.45;;
53253;SDS011;39148;53.332;6.922;2023-03-01T07:54:29;16.15;;;10.45;;
53253;SDS011;39148;53.332;6.922;2023-03-01T07:56:56;14.15;;;9.38;;
53253;SDS011;39148;53.332;6.922;2023-03-01T07:59:22;15.05;;;10.23;;
53253;SDS011;39148;53.332;6.922;2023-03-01T08:01:54;14.95;;;10.38;;
53253;SDS011;39148;53.332;6.922;2023-03-01T08:04:20;16.10;;;10.98;;
53253;SDS011;39148;53.332;6.922;2023-03-01T08:06:46;16.80;;;11.32;;
53253;SDS011;39148;53.332;6.922;2023-03-01T08:09:12;15.20;;;10.30;;
53253;SDS011;39148;53.332;6.922;2023-03-01T08:11:39;15.52;;;11.73;;
53253;SDS011;39148;53.332;6.922;2023-03-01T08:14:05;15.38;;;10.60;;
53253;SDS011;39148;53.332;6.922;2023-03-01T08:16:31;16.60;;;11.27;;
53253;SDS011;39148;53.332;6.922;2023-03-01T08:19:03;17.83;;;12.20;;
53253;SDS011;39148;53.332;6.922;2023-03-01T08:21:30;16.42;;;11.75;;
53253;SDS011;39148;53.332;6.922;2023-03-01T08:23:56;17.58;;;11.40;;
53253;SDS011;39148;53.332;6.922;2023-03-01T08:26:22;17.27;;;12.40;;
53253;SDS011;39148;53.332;6.922;2023-03-01T08:28:48;17.77;;;12.55;;
53253;SDS011;39148;53.332;6.922;2023-03-01T08:33:48;16.52;;;12.32;;
53253;SDS011;39148;53.332;6.922;2023-03-01T08:36:16;18.55;;;12.50;;
53253;SDS011;39148;53.332;6.922;2023-03-01T08:38:42;15.75;;;11.88;;
53253;SDS011;39148;53.332;6.922;2023-03-01T08:41:09;16.90;;;12.00;;
53253;SDS011;39148;53.332;6.922;2023-03-01T08:43:35;17.05;;;11.98;;
53253;SDS011;39148;53.332;6.922;2023-03-01T08:46:00;18.60;;;12.93;;
53253;SDS011;39148;53.332;6.922;2023-03-01T08:48:27;17.63;;;12.70;;
53253;SDS011;39148;53.332;6.922;2023-03-01T08:50:53;16.95;;;12.20;;
53253;SDS011;39148;53.332;6.922;2023-03-01T08:53:20;15.52;;;12.57;;
53253;SDS011;39148;53.332;6.922;2023-03-01T08:55:46;16.13;;;11.88;;
53253;SDS011;39148;53.332;6.922;2023-03-01T08:58:12;16.77;;;11.60;;
53253;SDS011;39148;53.332;6.922;2023-03-01T09:00:38;16.65;;;12.38;;
53253;SDS011;39148;53.332;6.922;2023-03-01T09:03:05;19.30;;;13.05;;
53253;SDS011;39148;53.332;6.922;2023-03-01T09:05:32;16.77;;;12.20;;
53253;SDS011;39148;53.332;6.922;2023-03-01T09:07:58;16.55;;;12.05;;
53253;SDS011;39148;53.332;6.922;2023-03-01T09:10:24;17.83;;;13.23;;
53253;SDS011;39148;53.332;6.922;2023-03-01T09:12:51;17.60;;;13.18;;
53253;SDS011;39148;53.332;6.922;2023-03-01T09:15:17;19.30;;;13.25;;
53253;SDS011;39148;53.332;6.922;2023-03-01T09:17:43;18.85;;;12.88;;
53253;SDS011;39148;53.332;6.922;2023-03-01T09:20:09;19.17;;;13.30;;
53253;SDS011;39148;53.332;6.922;2023-03-01T09:22:35;17.38;;;12.77;;
53253;SDS011;39148;53.332;6.922;2023-03-01T09:25:01;16.77;;;12.57;;
53253;SDS011;39148;53.332;6.922;2023-03-01T09:27:27;16.92;;;12.23;;
53253;SDS011;39148;53.332;6.922;2023-03-01T09:29:53;15.68;;;11.63;;
53253;SDS011;39148;53.332;6.922;2023-03-01T09:32:21;17.65;;;12.45;;
53253;SDS011;39148;53.332;6.922;2023-03-01T09:34:47;18.98;;;12.52;;
53253;SDS011;39148;53.332;6.922;2023-03-01T09:37:32;18.30;;;12.70;;
53253;SDS011;39148;53.332;6.922;2023-03-01T09:39:58;18.13;;;12.05;;
53253;SDS011;39148;53.332;6.922;2023-03-01T09:42:24;17.27;;;12.32;;
53253;SDS011;39148;53.332;6.922;2023-03-01T09:44:52;18.83;;;12.25;;
53253;SDS011;39148;53.332;6.922;2023-03-01T09:47:32;16.45;;;12.65;;
53253;SDS011;39148;53.332;6.922;2023-03-01T09:50:12;17.55;;;12.82;;
53253;SDS011;39148;53.332;6.922;2023-03-01T09:52:43;16.58;;;12.02;;
53253;SDS011;39148;53.332;6.922;2023-03-01T09:55:15;16.08;;;11.38;;
53253;SDS011;39148;53.332;6.922;2023-03-01T09:57:46;16.45;;;11.75;;
53253;SDS011;39148;53.332;6.922;2023-03-01T10:03:06;17.40;;;12.40;;
53253;SDS011;39148;53.332;6.922;2023-03-01T10:05:41;15.73;;;11.40;;
53253;SDS011;39148;53.332;6.922;2023-03-01T10:10:38;16.08;;;12.02;;
53253;SDS011;39148;53.332;6.922;2023-03-01T10:13:25;16.92;;;11.63;;
53253;SDS011;39148;53.332;6.922;2023-03-01T10:15:57;14.93;;;11.40;;
53253;SDS011;39148;53.332;6.922;2023-03-01T10:18:26;15.38;;;11.07;;
53253;SDS011;39148;53.332;6.922;2023-03-01T10:20:59;15.38;;;11.07;;
53253;SDS011;39148;53.332;6.922;2023-03-01T10:23:27;18.08;;;12.20;;
53253;SDS011;39148;53.332;6.922;2023-03-01T10:29:11;15.75;;;11.55;;
53253;SDS011;39148;53.332;6.922;2023-03-01T10:31:48;15.88;;;11.65;;
53253;SDS011;39148;53.332;6.922;2023-03-01T10:34:19;15.02;;;11.40;;
53253;SDS011;39148;53.332;6.922;2023-03-01T10:36:49;16.25;;;11.68;;
53253;SDS011;39148;53.332;6.922;2023-03-01T10:39:19;16.10;;;11.70;;
53253;SDS011;39148;53.332;6.922;2023-03-01T10:41:56;15.80;;;11.25;;
53253;SDS011;39148;53.332;6.922;2023-03-01T10:44:40;16.33;;;12.00;;
53253;SDS011;39148;53.332;6.922;2023-03-01T10:47:12;15.68;;;11.07;;
53253;SDS011;39148;53.332;6.922;2023-03-01T10:52:18;15.48;;;11.23;;
53253;SDS011;39148;53.332;6.922;2023-03-01T10:54:50;14.00;;;11.35;;
53253;SDS011;39148;53.332;6.922;2023-03-01T10:57:30;15.32;;;11.02;;
53253;SDS011;39148;53.332;6.922;2023-03-01T11:00:01;15.75;;;11.77;;
53253;SDS011;39148;53.332;6.922;2023-03-01T11:02:29;17.58;;;11.95;;
53253;SDS011;39148;53.332;6.922;2023-03-01T11:07:23;15.00;;;10.93;;
53253;SDS011;39148;53.332;6.922;2023-03-01T11:09:49;15.20;;;9.85;;
53253;SDS011;39148;53.332;6.922;2023-03-01T11:12:15;16.15;;;11.20;;
53253;SDS011;39148;53.332;6.922;2023-03-01T11:17:27;15.18;;;10.57;;
53253;SDS011;39148;53.332;6.922;2023-03-01T11:20:02;17.38;;;11.85;;
53253;SDS011;39148;53.332;6.922;2023-03-01T11:22:44;17.08;;;11.27;;
53253;SDS011;39148;53.332;6.922;2023-03-01T11:25:11;18.40;;;13.48;;
53253;SDS011;39148;53.332;6.922;2023-03-01T11:27:43;16.17;;;11.65;;
53253;SDS011;39148;53.332;6.922;2023-03-01T11:33:38;19.55;;;13.50;;
53253;SDS011;39148;53.332;6.922;2023-03-01T11:35:32;20.25;;;13.68;;
53253;SDS011;39148;53.332;6.922;2023-03-01T11:40:48;21.92;;;14.00;;
53253;SDS011;39148;53.332;6.922;2023-03-01T11:48:24;19.17;;;14.48;;
53253;SDS011;39148;53.332;6.922;2023-03-01T11:50:54;19.45;;;13.85;;
53253;SDS011;39148;53.332;6.922;2023-03-01T11:58:38;17.83;;;13.13;;
53253;SDS011;39148;53.332;6.922;2023-03-01T12:19:45;16.02;;;11.77;;
53253;SDS011;39148;53.332;6.922;2023-03-01T12:35:16;13.90;;;10.52;;
53253;SDS011;39148;53.332;6.922;2023-03-01T12:38:13;15.77;;;10.77;;
53253;SDS011;39148;53.332;6.922;2023-03-01T12:40:48;13.55;;;10.10;;
53253;SDS011;39148;53.332;6.922;2023-03-01T12:43:22;13.93;;;10.88;;
53253;SDS011;39148;53.332;6.922;2023-03-01T12:46:01;14.88;;;10.90;;
53253;SDS011;39148;53.332;6.922;2023-03-01T12:51:18;14.70;;;10.25;;
53253;SDS011;39148;53.332;6.922;2023-03-01T12:53:47;13.85;;;10.13;;
53253;SDS011;39148;53.332;6.922;2023-03-01T12:56:17;13.85;;;10.27;;
53253;SDS011;39148;53.332;6.922;2023-03-01T12:59:00;15.45;;;10.05;;
53253;SDS011;39148;53.332;6.922;2023-03-01T13:11:29;13.88;;;9.88;;
53253;SDS011;39148;53.332;6.922;2023-03-01T13:14:33;13.32;;;9.57;;
53253;SDS011;39148;53.332;6.922;2023-03-01T13:16:41;12.07;;;9.55;;
53253;SDS011;39148;53.332;6.922;2023-03-01T13:21:42;12.07;;;9.32;;
53253;SDS011;39148;53.332;6.922;2023-03-01T13:29:44;13.77;;;9.05;;
53253;SDS011;39148;53.332;6.922;2023-03-01T13:37:44;12.93;;;8.98;;
53253;SDS011;39148;53.332;6.922;2023-03-01T13:42:46;12.73;;;8.75;;
53253;SDS011;39148;53.332;6.922;2023-03-01T13:45:17;12.55;;;8.98;;
53253;SDS011;39148;53.332;6.922;2023-03-01T13:47:45;11.95;;;8.45;;
53253;SDS011;39148;53.332;6.922;2023-03-01T13:50:21;12.02;;;8.30;;
53253;SDS011;39148;53.332;6.922;2023-03-01T13:55:27;12.57;;;8.38;;
53253;SDS011;39148;53.332;6.922;2023-03-01T13:58:24;10.93;;;8.48;;
53253;SDS011;39148;53.332;6.922;2023-03-01T14:01:06;11.73;;;8.15;;
53253;SDS011;39148;53.332;6.922;2023-03-01T14:03:39;10.98;;;8.45;;
53253;SDS011;39148;53.332;6.922;2023-03-01T14:06:13;10.95;;;8.18;;
53253;SDS011;39148;53.332;6.922;2023-03-01T14:08:43;12.20;;;8.70;;
53253;SDS011;39148;53.332;6.922;2023-03-01T14:16:19;14.07;;;9.05;;
53253;SDS011;39148;53.332;6.922;2023-03-01T14:19:23;11.52;;;7.82;;
53253;SDS011;39148;53.332;6.922;2023-03-01T14:24:30;11.52;;;7.70;;
53253;SDS011;39148;53.332;6.922;2023-03-01T14:26:58;11.60;;;7.75;;
53253;SDS011;39148;53.332;6.922;2023-03-01T14:29:36;10.60;;;7.55;;
53253;SDS011;39148;53.332;6.922;2023-03-01T14:34:42;11.13;;;8.02;;
53253;SDS011;39148;53.332;6.922;2023-03-01T14:37:28;10.95;;;7.95;;
53253;SDS011;39148;53.332;6.922;2023-03-01T14:39:54;12.00;;;7.88;;
53253;SDS011;39148;53.332;6.922;2023-03-01T14:42:21;11.68;;;7.90;;
53253;SDS011;39148;53.332;6.922;2023-03-01T14:44:49;11.35;;;7.43;;
53253;SDS011;39148;53.332;6.922;2023-03-01T14:47:19;9.73;;;7.28;;
53253;SDS011;39148;53.332;6.922;2023-03-01T14:49:50;11.07;;;7.60;;
53253;SDS011;39148;53.332;6.922;2023-03-01T14:52:20;10.55;;;7.53;;
53253;SDS011;39148;53.332;6.922;2023-03-01T14:54:50;10.65;;;7.72;;
53253;SDS011;39148;53.332;6.922;2023-03-01T14:57:23;9.82;;;7.57;;
53253;SDS011;39148;53.332;6.922;2023-03-01T14:59:51;10.57;;;7.07;;
53253;SDS011;39148;53.332;6.922;2023-03-01T15:02:25;10.25;;;7.30;;
53253;SDS011;39148;53.332;6.922;2023-03-01T15:04:54;9.68;;;7.65;;
53253;SDS011;39148;53.332;6.922;2023-03-01T15:07:21;11.05;;;7.68;;
53253;SDS011;39148;53.332;6.922;2023-03-01T15:09:48;9.65;;;6.97;;
53253;SDS011;39148;53.332;6.922;2023-03-01T15:12:36;10.20;;;7.15;;
53253;SDS011;39148;53.332;6.922;2023-03-01T15:15:06;12.27;;;7.82;;
53253;SDS011;39148;53.332;6.922;2023-03-01T15:17:49;9.52;;;6.82;;
53253;SDS011;39148;53.332;6.922;2023-03-01T15:20:20;11.23;;;7.30;;
53253;SDS011;39148;53.332;6.922;2023-03-01T15:22:50;9.57;;;7.18;;
53253;SDS011;39148;53.332;6.922;2023-03-01T15:25:18;9.07;;;7.00;;
53253;SDS011;39148;53.332;6.922;2023-03-01T15:27:46;9.57;;;6.50;;
53253;SDS011;39148;53.332;6.922;2023-03-01T15:30:17;9.85;;;6.82;;
53253;SDS011;39148;53.332;6.922;2023-03-01T15:32:45;8.95;;;6.93;;
53253;SDS011;39148;53.332;6.922;2023-03-01T15:43:47;9.55;;;6.88;;
53253;SDS011;39148;53.332;6.922;2023-03-01T15:46:22;9.05;;;6.68;;
53253;SDS011;39148;53.332;6.922;2023-03-01T15:48:55;9.32;;;6.60;;
53253;SDS011;39148;53.332;6.922;2023-03-01T15:51:27;8.65;;;6.57;;
53253;SDS011;39148;53.332;6.922;2023-03-01T15:53:55;10.07;;;7.22;;
53253;SDS011;39148;53.332;6.922;2023-03-01T15:56:23;9.43;;;6.80;;
53253;SDS011;39148;53.332;6.922;2023-03-01T15:58:49;8.63;;;6.50;;
53253;SDS011;39148;53.332;6.922;2023-03-01T16:01:16;9.35;;;6.60;;
53253;SDS011;39148;53.332;6.922;2023-03-01T16:03:42;9.38;;;7.18;;
53253;SDS011;39148;53.332;6.922;2023-03-01T16:06:09;9.90;;;6.78;;
53253;SDS011;39148;53.332;6.922;2023-03-01T16:08:36;10.18;;;7.07;;
53253;SDS011;39148;53.332;6.922;2023-03-01T16:11:04;8.90;;;6.40;;
53253;SDS011;39148;53.332;6.922;2023-03-01T16:13:34;9.82;;;6.60;;
53253;SDS011;39148;53.332;6.922;2023-03-01T16:16:00;10.60;;;6.93;;
53253;SDS011;39148;53.332;6.922;2023-03-01T16:18:26;9.55;;;6.30;;
53253;SDS011;39148;53.332;6.922;2023-03-01T16:20:52;10.32;;;6.53;;
53253;SDS011;39148;53.332;6.922;2023-03-01T16:23:19;9.75;;;7.13;;
53253;SDS011;39148;53.332;6.922;2023-03-01T16:25:46;9.85;;;6.70;;
53253;SDS011;39148;53.332;6.922;2023-03-01T16:28:12;9.10;;;6.93;;
53253;SDS011;39148;53.332;6.922;2023-03-01T16:30:39;10.65;;;6.35;;
53253;SDS011;39148;53.332;6.922;2023-03-01T16:33:05;10.82;;;6.97;;
53253;SDS011;39148;53.332;6.922;2023-03-01T16:35:33;8.82;;;6.60;;
53253;SDS011;39148;53.332;6.922;2023-03-01T16:38:03;10.07;;;6.55;;
53253;SDS011;39148;53.332;6.922;2023-03-01T16:40:30;9.38;;;6.68;;
53253;SDS011;39148;53.332;6.922;2023-03-01T16:42:56;8.65;;;6.28;;
53253;SDS011;39148;53.332;6.922;2023-03-01T16:45:25;9.07;;;7.00;;
53253;SDS011;39148;53.332;6.922;2023-03-01T16:47:52;8.82;;;6.03;;
53253;SDS011;39148;53.332;6.922;2023-03-01T16:50:18;9.55;;;6.65;;
53253;SDS011;39148;53.332;6.922;2023-03-01T16:52:44;9.77;;;6.15;;
53253;SDS011;39148;53.332;6.922;2023-03-01T16:55:10;7.55;;;5.55;;
53253;SDS011;39148;53.332;6.922;2023-03-01T16:57:37;8.63;;;6.32;;
53253;SDS011;39148;53.332;6.922;2023-03-01T17:00:07;8.98;;;6.35;;